sensor_id;sensor_type;location;lat;lon;timestamp;P1;durP1;ratioP1;P2;durP2;ratioP2
37609;SDS011;23457;51.966;8.230;2023-12-29T00:00:20;6.18;;;1.25;;
37609;SDS011;23457;51.966;8.230;2023-12-29T00:02:47;7.18;;;1.38;;
37609;SDS011;23457;51.966;8.230;2023-12-29T00:05:14;5.78;;;1.55;;
37609;SDS011;23457;51.966;8.230;2023-12-29T00:07:41;5.28;;;1.55;;
37609;SDS011;23457;51.966;8.230;2023-12-29T00:10:08;7.28;;;1.25;;
37609;SDS011;23457;51.966;8.230;2023-12-29T00:12:38;11.20;;;1.60;;
37609;SDS011;23457;51.966;8.230;2023-12-29T00:15:05;8.43;;;1.55;;
37609;SDS011;23457;51.966;8.230;2023-12-29T00:17:31;8.85;;;1.73;;
37609;SDS011;23457;51.966;8.230;2023-12-29T00:19:58;12.57;;;1.83;;
37609;SDS011;23457;51.966;8.230;2023-12-29T00:22:25;7.10;;;1.38;;
37609;SDS011;23457;51.966;8.230;2023-12-29T00:24:53;7.18;;;1.67;;
37609;SDS011;23457;51.966;8.230;2023-12-29T00:27:20;5.88;;;1.15;;
37609;SDS011;23457;51.966;8.230;2023-12-29T00:29:47;5.45;;;1.27;;
37609;SDS011;23457;51.966;8.230;2023-12-29T00:32:15;10.20;;;2.33;;
37609;SDS011;23457;51.966;8.230;2023-12-29T00:34:42;5.85;;;1.27;;
37609;SDS011;23457;51.966;8.230;2023-12-29T00:37:09;9.57;;;1.58;;
37609;SDS011;23457;51.966;8.230;2023-12-29T00:39:35;7.88;;;1.45;;
37609;SDS011;23457;51.966;8.230;2023-12-29T00:42:06;8.18;;;1.33;;
37609;SDS011;23457;51.966;8.230;2023-12-29T00:44:33;3.50;;;1.13;;
37609;SDS011;23457;51.966;8.230;2023-12-29T00:47:00;11.85;;;1.50;;
37609;SDS011;23457;51.966;8.230;2023-12-29T00:49:27;7.28;;;1.23;;
37609;SDS011;23457;51.966;8.230;2023-12-29T00:51:54;9.23;;;1.30;;
37609;SDS011;23457;51.966;8.230;2023-12-29T00:54:20;6.95;;;1.33;;
37609;SDS011;23457;51.966;8.230;2023-12-29T00:56:48;10.60;;;1.65;;
37609;SDS011;23457;51.966;8.230;2023-12-29T00:59:16;7.40;;;1.65;;
37609;SDS011;23457;51.966;8.230;2023-12-29T01:01:44;10.70;;;1.60;;
37609;SDS011;23457;51.966;8.230;2023-12-29T01:04:11;13.57;;;1.63;;
37609;SDS011;23457;51.966;8.230;2023-12-29T01:06:38;8.00;;;1.40;;
37609;SDS011;23457;51.966;8.230;2023-12-29T01:09:06;10.95;;;1.50;;
37609;SDS011;23457;51.966;8.230;2023-12-29T01:11:34;8.52;;;1.40;;
37609;SDS011;23457;51.966;8.230;2023-12-29T01:14:01;11.30;;;1.77;;
37609;SDS011;23457;51.966;8.230;2023-12-29T01:16:27;6.72;;;1.20;;
37609;SDS011;23457;51.966;8.230;2023-12-29T01:18:54;9.15;;;1.67;;
37609;SDS011;23457;51.966;8.230;2023-12-29T01:21:21;11.00;;;1.45;;
37609;SDS011;23457;51.966;8.230;2023-12-29T01:23:48;8.38;;;1.35;;
37609;SDS011;23457;51.966;8.230;2023-12-29T01:26:15;4.57;;;1.30;;
37609;SDS011;23457;51.966;8.230;2023-12-29T01:28:42;4.88;;;0.90;;
37609;SDS011;23457;51.966;8.230;2023-12-29T01:31:08;8.80;;;1.50;;
37609;SDS011;23457;51.966;8.230;2023-12-29T01:33:37;7.53;;;1.83;;
37609;SDS011;23457;51.966;8.230;2023-12-29T01:36:04;6.50;;;1.50;;
37609;SDS011;23457;51.966;8.230;2023-12-29T01:38:42;7.13;;;1.33;;
37609;SDS011;23457;51.966;8.230;2023-12-29T01:41:09;6.55;;;1.40;;
37609;SDS011;23457;51.966;8.230;2023-12-29T01:43:36;8.75;;;1.13;;
37609;SDS011;23457;51.966;8.230;2023-12-29T01:46:02;7.10;;;1.42;;
37609;SDS011;23457;51.966;8.230;2023-12-29T01:48:29;9.20;;;1.50;;
37609;SDS011;23457;51.966;8.230;2023-12-29T01:50:56;4.25;;;1.65;;
37609;SDS011;23457;51.966;8.230;2023-12-29T01:53:24;6.47;;;1.65;;
37609;SDS011;23457;51.966;8.230;2023-12-29T01:56:05;10.77;;;1.42;;
37609;SDS011;23457;51.966;8.230;2023-12-29T01:58:33;9.25;;;1.40;;
37609;SDS011;23457;51.966;8.230;2023-12-29T02:01:00;5.97;;;1.10;;
37609;SDS011;23457;51.966;8.230;2023-12-29T02:03:28;6.32;;;1.70;;
37609;SDS011;23457;51.966;8.230;2023-12-29T02:05:55;7.72;;;1.60;;
37609;SDS011;23457;51.966;8.230;2023-12-29T02:08:24;4.78;;;1.35;;
37609;SDS011;23457;51.966;8.230;2023-12-29T02:10:51;6.53;;;1.30;;
37609;SDS011;23457;51.966;8.230;2023-12-29T02:13:18;8.25;;;1.42;;
37609;SDS011;23457;51.966;8.230;2023-12-29T02:15:45;10.52;;;1.38;;
37609;SDS011;23457;51.966;8.230;2023-12-29T02:18:14;4.22;;;1.30;;
37609;SDS011;23457;51.966;8.230;2023-12-29T02:20:43;9.15;;;1.33;;
37609;SDS011;23457;51.966;8.230;2023-12-29T02:23:10;3.97;;;1.10;;
37609;SDS011;23457;51.966;8.230;2023-12-29T02:25:37;6.60;;;1.20;;
37609;SDS011;23457;51.966;8.230;2023-12-29T02:28:07;8.73;;;1.65;;
37609;SDS011;23457;51.966;8.230;2023-12-29T02:30:41;8.30;;;1.40;;
37609;SDS011;23457;51.966;8.230;2023-12-29T02:33:14;6.30;;;1.20;;
37609;SDS011;23457;51.966;8.230;2023-12-29T02:35:45;9.93;;;1.40;;
37609;SDS011;23457;51.966;8.230;2023-12-29T02:38:15;6.35;;;1.25;;
37609;SDS011;23457;51.966;8.230;2023-12-29T02:40:42;5.25;;;1.45;;
37609;SDS011;23457;51.966;8.230;2023-12-29T02:43:09;9.20;;;1.48;;
37609;SDS011;23457;51.966;8.230;2023-12-29T02:45:36;8.25;;;1.67;;
37609;SDS011;23457;51.966;8.230;2023-12-29T02:48:03;6.03;;;1.13;;
37609;SDS011;23457;51.966;8.230;2023-12-29T02:50:30;9.27;;;1.63;;
37609;SDS011;23457;51.966;8.230;2023-12-29T02:52:57;8.05;;;1.27;;
37609;SDS011;23457;51.966;8.230;2023-12-29T02:55:23;7.43;;;1.42;;
37609;SDS011;23457;51.966;8.230;2023-12-29T02:57:50;6.05;;;1.58;;
37609;SDS011;23457;51.966;8.230;2023-12-29T03:00:17;9.07;;;1.63;;
37609;SDS011;23457;51.966;8.230;2023-12-29T03:02:43;8.55;;;1.17;;
37609;SDS011;23457;51.966;8.230;2023-12-29T03:05:11;8.15;;;1.50;;
37609;SDS011;23457;51.966;8.230;2023-12-29T03:07:37;10.10;;;1.80;;
37609;SDS011;23457;51.966;8.230;2023-12-29T03:10:06;9.90;;;2.40;;
37609;SDS011;23457;51.966;8.230;2023-12-29T03:12:37;13.00;;;1.70;;
37609;SDS011;23457;51.966;8.230;2023-12-29T03:15:04;10.68;;;1.63;;
37609;SDS011;23457;51.966;8.230;2023-12-29T03:17:32;4.05;;;1.15;;
37609;SDS011;23457;51.966;8.230;2023-12-29T03:19:59;10.23;;;1.65;;
37609;SDS011;23457;51.966;8.230;2023-12-29T03:22:26;5.60;;;1.70;;
37609;SDS011;23457;51.966;8.230;2023-12-29T03:24:52;10.75;;;1.58;;
37609;SDS011;23457;51.966;8.230;2023-12-29T03:27:19;7.82;;;1.50;;
37609;SDS011;23457;51.966;8.230;2023-12-29T03:29:46;7.22;;;1.52;;
37609;SDS011;23457;51.966;8.230;2023-12-29T03:32:13;12.45;;;1.65;;
37609;SDS011;23457;51.966;8.230;2023-12-29T03:34:41;11.30;;;1.70;;
37609;SDS011;23457;51.966;8.230;2023-12-29T03:37:09;8.90;;;1.35;;
37609;SDS011;23457;51.966;8.230;2023-12-29T03:39:36;6.53;;;1.25;;
37609;SDS011;23457;51.966;8.230;2023-12-29T03:42:03;7.78;;;1.65;;
37609;SDS011;23457;51.966;8.230;2023-12-29T03:44:30;6.13;;;1.85;;
37609;SDS011;23457;51.966;8.230;2023-12-29T03:46:57;9.20;;;1.88;;
37609;SDS011;23457;51.966;8.230;2023-12-29T03:49:23;10.35;;;2.05;;
37609;SDS011;23457;51.966;8.230;2023-12-29T03:51:50;10.95;;;1.83;;
37609;SDS011;23457;51.966;8.230;2023-12-29T03:54:17;11.50;;;1.70;;
37609;SDS011;23457;51.966;8.230;2023-12-29T03:56:45;10.73;;;2.15;;
37609;SDS011;23457;51.966;8.230;2023-12-29T03:59:12;6.35;;;1.50;;
37609;SDS011;23457;51.966;8.230;2023-12-29T04:01:39;6.50;;;1.52;;
37609;SDS011;23457;51.966;8.230;2023-12-29T04:04:05;10.27;;;2.00;;
37609;SDS011;23457;51.966;8.230;2023-12-29T04:06:33;8.40;;;1.92;;
37609;SDS011;23457;51.966;8.230;2023-12-29T04:09:00;8.68;;;2.38;;
37609;SDS011;23457;51.966;8.230;2023-12-29T04:11:26;11.32;;;1.88;;
37609;SDS011;23457;51.966;8.230;2023-12-29T04:13:54;5.40;;;1.80;;
37609;SDS011;23457;51.966;8.230;2023-12-29T04:16:21;8.73;;;1.90;;
37609;SDS011;23457;51.966;8.230;2023-12-29T04:18:47;9.32;;;1.83;;
37609;SDS011;23457;51.966;8.230;2023-12-29T04:21:14;9.00;;;2.03;;
37609;SDS011;23457;51.966;8.230;2023-12-29T04:23:41;8.27;;;1.85;;
37609;SDS011;23457;51.966;8.230;2023-12-29T04:26:08;12.70;;;2.33;;
37609;SDS011;23457;51.966;8.230;2023-12-29T04:28:36;10.00;;;1.92;;
37609;SDS011;23457;51.966;8.230;2023-12-29T04:31:02;6.90;;;2.05;;
37609;SDS011;23457;51.966;8.230;2023-12-29T04:33:30;12.73;;;2.10;;
37609;SDS011;23457;51.966;8.230;2023-12-29T04:35:57;10.18;;;2.08;;
37609;SDS011;23457;51.966;8.230;2023-12-29T04:38:24;6.47;;;1.90;;
37609;SDS011;23457;51.966;8.230;2023-12-29T04:40:51;19.73;;;2.50;;
37609;SDS011;23457;51.966;8.230;2023-12-29T04:43:17;10.77;;;3.00;;
37609;SDS011;23457;51.966;8.230;2023-12-29T04:45:44;16.05;;;2.72;;
37609;SDS011;23457;51.966;8.230;2023-12-29T04:48:11;16.45;;;2.15;;
37609;SDS011;23457;51.966;8.230;2023-12-29T04:50:38;9.52;;;2.05;;
37609;SDS011;23457;51.966;8.230;2023-12-29T04:53:05;13.05;;;2.10;;
37609;SDS011;23457;51.966;8.230;2023-12-29T04:55:32;10.45;;;2.22;;
37609;SDS011;23457;51.966;8.230;2023-12-29T04:57:58;8.32;;;2.03;;
37609;SDS011;23457;51.966;8.230;2023-12-29T05:00:25;10.80;;;1.80;;
37609;SDS011;23457;51.966;8.230;2023-12-29T05:02:52;9.52;;;1.70;;
37609;SDS011;23457;51.966;8.230;2023-12-29T05:05:19;14.40;;;2.42;;
37609;SDS011;23457;51.966;8.230;2023-12-29T05:07:45;9.13;;;2.05;;
37609;SDS011;23457;51.966;8.230;2023-12-29T05:10:12;7.32;;;2.30;;
37609;SDS011;23457;51.966;8.230;2023-12-29T05:12:39;10.25;;;2.45;;
37609;SDS011;23457;51.966;8.230;2023-12-29T05:15:06;10.40;;;2.30;;
37609;SDS011;23457;51.966;8.230;2023-12-29T05:17:33;12.88;;;2.90;;
37609;SDS011;23457;51.966;8.230;2023-12-29T05:19:59;14.15;;;1.80;;
37609;SDS011;23457;51.966;8.230;2023-12-29T05:22:26;8.48;;;1.98;;
37609;SDS011;23457;51.966;8.230;2023-12-29T05:24:53;11.93;;;1.75;;
37609;SDS011;23457;51.966;8.230;2023-12-29T05:27:24;7.57;;;2.10;;
37609;SDS011;23457;51.966;8.230;2023-12-29T05:29:50;12.02;;;2.05;;
37609;SDS011;23457;51.966;8.230;2023-12-29T05:32:17;9.80;;;1.70;;
37609;SDS011;23457;51.966;8.230;2023-12-29T05:34:44;10.02;;;2.25;;
37609;SDS011;23457;51.966;8.230;2023-12-29T05:37:11;12.63;;;2.28;;
37609;SDS011;23457;51.966;8.230;2023-12-29T05:39:37;14.50;;;1.80;;
37609;SDS011;23457;51.966;8.230;2023-12-29T05:42:04;8.85;;;2.58;;
37609;SDS011;23457;51.966;8.230;2023-12-29T05:44:31;11.60;;;1.88;;
37609;SDS011;23457;51.966;8.230;2023-12-29T05:46:57;8.43;;;1.77;;
37609;SDS011;23457;51.966;8.230;2023-12-29T05:49:24;10.02;;;1.75;;
37609;SDS011;23457;51.966;8.230;2023-12-29T05:51:52;13.95;;;2.00;;
37609;SDS011;23457;51.966;8.230;2023-12-29T05:54:19;11.45;;;1.70;;
37609;SDS011;23457;51.966;8.230;2023-12-29T05:56:45;10.45;;;2.35;;
37609;SDS011;23457;51.966;8.230;2023-12-29T05:59:12;10.23;;;2.30;;
37609;SDS011;23457;51.966;8.230;2023-12-29T06:01:39;12.68;;;1.80;;
37609;SDS011;23457;51.966;8.230;2023-12-29T06:04:06;9.65;;;2.13;;
37609;SDS011;23457;51.966;8.230;2023-12-29T06:06:33;12.80;;;2.10;;
37609;SDS011;23457;51.966;8.230;2023-12-29T06:08:59;11.05;;;2.13;;
37609;SDS011;23457;51.966;8.230;2023-12-29T06:11:26;8.60;;;1.65;;
37609;SDS011;23457;51.966;8.230;2023-12-29T06:13:53;9.77;;;2.00;;
37609;SDS011;23457;51.966;8.230;2023-12-29T06:16:20;10.20;;;1.90;;
37609;SDS011;23457;51.966;8.230;2023-12-29T06:18:47;11.25;;;2.13;;
37609;SDS011;23457;51.966;8.230;2023-12-29T06:21:14;14.02;;;2.00;;
37609;SDS011;23457;51.966;8.230;2023-12-29T06:23:41;10.52;;;1.95;;
37609;SDS011;23457;51.966;8.230;2023-12-29T06:26:13;13.00;;;1.50;;
37609;SDS011;23457;51.966;8.230;2023-12-29T06:28:41;8.90;;;1.60;;
37609;SDS011;23457;51.966;8.230;2023-12-29T06:31:08;8.35;;;1.88;;
37609;SDS011;23457;51.966;8.230;2023-12-29T06:33:35;11.90;;;2.10;;
37609;SDS011;23457;51.966;8.230;2023-12-29T06:36:02;9.98;;;2.25;;
37609;SDS011;23457;51.966;8.230;2023-12-29T06:38:29;9.10;;;2.60;;
37609;SDS011;23457;51.966;8.230;2023-12-29T06:40:56;9.57;;;1.70;;
37609;SDS011;23457;51.966;8.230;2023-12-29T06:43:23;9.73;;;1.88;;
37609;SDS011;23457;51.966;8.230;2023-12-29T06:45:49;12.68;;;1.73;;
37609;SDS011;23457;51.966;8.230;2023-12-29T06:48:16;8.50;;;1.67;;
37609;SDS011;23457;51.966;8.230;2023-12-29T06:53:12;12.07;;;1.50;;
37609;SDS011;23457;51.966;8.230;2023-12-29T06:55:39;11.52;;;2.55;;
37609;SDS011;23457;51.966;8.230;2023-12-29T06:58:06;7.50;;;1.70;;
37609;SDS011;23457;51.966;8.230;2023-12-29T07:00:34;11.55;;;1.92;;
37609;SDS011;23457;51.966;8.230;2023-12-29T07:03:01;10.35;;;2.22;;
37609;SDS011;23457;51.966;8.230;2023-12-29T07:05:28;8.52;;;1.85;;
37609;SDS011;23457;51.966;8.230;2023-12-29T07:07:54;12.13;;;2.13;;
37609;SDS011;23457;51.966;8.230;2023-12-29T07:10:21;5.60;;;1.45;;
37609;SDS011;23457;51.966;8.230;2023-12-29T07:12:48;11.95;;;2.15;;
37609;SDS011;23457;51.966;8.230;2023-12-29T07:15:15;11.13;;;2.70;;
37609;SDS011;23457;51.966;8.230;2023-12-29T07:17:41;15.07;;;1.92;;
37609;SDS011;23457;51.966;8.230;2023-12-29T07:20:11;10.45;;;1.90;;
37609;SDS011;23457;51.966;8.230;2023-12-29T07:22:39;10.55;;;1.98;;
37609;SDS011;23457;51.966;8.230;2023-12-29T07:25:05;11.95;;;1.88;;
37609;SDS011;23457;51.966;8.230;2023-12-29T07:27:32;16.63;;;1.80;;
37609;SDS011;23457;51.966;8.230;2023-12-29T07:29:59;13.18;;;1.98;;
37609;SDS011;23457;51.966;8.230;2023-12-29T07:32:26;10.48;;;2.67;;
37609;SDS011;23457;51.966;8.230;2023-12-29T07:34:53;9.48;;;1.73;;
37609;SDS011;23457;51.966;8.230;2023-12-29T07:37:20;12.02;;;2.55;;
37609;SDS011;23457;51.966;8.230;2023-12-29T07:39:50;12.43;;;2.33;;
37609;SDS011;23457;51.966;8.230;2023-12-29T07:42:24;14.10;;;2.83;;
37609;SDS011;23457;51.966;8.230;2023-12-29T07:44:55;15.77;;;2.17;;
37609;SDS011;23457;51.966;8.230;2023-12-29T07:47:22;13.73;;;1.67;;
37609;SDS011;23457;51.966;8.230;2023-12-29T07:49:50;13.95;;;1.73;;
37609;SDS011;23457;51.966;8.230;2023-12-29T07:52:17;11.40;;;2.30;;
37609;SDS011;23457;51.966;8.230;2023-12-29T07:54:44;9.40;;;1.70;;
37609;SDS011;23457;51.966;8.230;2023-12-29T07:57:11;8.40;;;1.90;;
37609;SDS011;23457;51.966;8.230;2023-12-29T07:59:37;8.43;;;1.63;;
37609;SDS011;23457;51.966;8.230;2023-12-29T08:02:04;13.93;;;2.00;;
37609;SDS011;23457;51.966;8.230;2023-12-29T08:04:31;10.48;;;1.63;;
37609;SDS011;23457;51.966;8.230;2023-12-29T08:06:58;9.35;;;2.38;;
37609;SDS011;23457;51.966;8.230;2023-12-29T08:09:27;8.65;;;1.98;;
37609;SDS011;23457;51.966;8.230;2023-12-29T08:14:21;15.02;;;2.13;;
37609;SDS011;23457;51.966;8.230;2023-12-29T08:16:48;16.15;;;2.72;;
37609;SDS011;23457;51.966;8.230;2023-12-29T08:19:14;14.68;;;2.40;;
37609;SDS011;23457;51.966;8.230;2023-12-29T08:21:42;11.43;;;2.05;;
37609;SDS011;23457;51.966;8.230;2023-12-29T08:24:09;13.15;;;2.17;;
37609;SDS011;23457;51.966;8.230;2023-12-29T08:26:43;5.72;;;1.48;;
37609;SDS011;23457;51.966;8.230;2023-12-29T08:29:11;12.50;;;1.90;;
37609;SDS011;23457;51.966;8.230;2023-12-29T08:31:38;11.35;;;1.77;;
37609;SDS011;23457;51.966;8.230;2023-12-29T08:34:05;9.32;;;2.00;;
37609;SDS011;23457;51.966;8.230;2023-12-29T08:36:32;9.75;;;1.63;;
37609;SDS011;23457;51.966;8.230;2023-12-29T08:38:58;9.60;;;2.80;;
37609;SDS011;23457;51.966;8.230;2023-12-29T08:41:25;11.50;;;2.08;;
37609;SDS011;23457;51.966;8.230;2023-12-29T08:43:52;10.60;;;1.80;;
37609;SDS011;23457;51.966;8.230;2023-12-29T08:46:19;8.82;;;1.70;;
37609;SDS011;23457;51.966;8.230;2023-12-29T08:48:46;10.30;;;1.73;;
37609;SDS011;23457;51.966;8.230;2023-12-29T08:51:13;9.43;;;1.98;;
37609;SDS011;23457;51.966;8.230;2023-12-29T08:53:39;10.38;;;1.80;;
37609;SDS011;23457;51.966;8.230;2023-12-29T08:56:06;12.77;;;2.17;;
37609;SDS011;23457;51.966;8.230;2023-12-29T08:58:33;12.20;;;1.80;;
37609;SDS011;23457;51.966;8.230;2023-12-29T09:00:59;10.82;;;1.70;;
37609;SDS011;23457;51.966;8.230;2023-12-29T09:03:26;9.20;;;1.60;;
37609;SDS011;23457;51.966;8.230;2023-12-29T09:05:53;7.22;;;1.63;;
37609;SDS011;23457;51.966;8.230;2023-12-29T09:08:20;8.68;;;1.67;;
37609;SDS011;23457;51.966;8.230;2023-12-29T09:10:47;10.55;;;1.70;;
37609;SDS011;23457;51.966;8.230;2023-12-29T09:13:14;9.88;;;1.60;;
37609;SDS011;23457;51.966;8.230;2023-12-29T09:15:40;12.15;;;1.83;;
37609;SDS011;23457;51.966;8.230;2023-12-29T09:18:07;9.68;;;1.70;;
37609;SDS011;23457;51.966;8.230;2023-12-29T09:20:34;10.32;;;2.03;;
37609;SDS011;23457;51.966;8.230;2023-12-29T09:23:01;12.00;;;1.70;;
37609;SDS011;23457;51.966;8.230;2023-12-29T09:25:29;9.40;;;1.75;;
37609;SDS011;23457;51.966;8.230;2023-12-29T09:27:56;9.55;;;1.35;;
37609;SDS011;23457;51.966;8.230;2023-12-29T09:30:23;7.65;;;1.65;;
37609;SDS011;23457;51.966;8.230;2023-12-29T09:32:50;12.30;;;1.65;;
37609;SDS011;23457;51.966;8.230;2023-12-29T09:35:17;9.70;;;1.92;;
37609;SDS011;23457;51.966;8.230;2023-12-29T09:37:44;8.70;;;1.38;;
37609;SDS011;23457;51.966;8.230;2023-12-29T09:40:13;9.18;;;1.88;;
37609;SDS011;23457;51.966;8.230;2023-12-29T09:42:42;7.15;;;1.88;;
37609;SDS011;23457;51.966;8.230;2023-12-29T09:45:11;10.80;;;2.10;;
37609;SDS011;23457;51.966;8.230;2023-12-29T09:47:44;8.90;;;1.75;;
37609;SDS011;23457;51.966;8.230;2023-12-29T09:50:12;10.43;;;2.25;;
37609;SDS011;23457;51.966;8.230;2023-12-29T09:52:39;15.13;;;1.80;;
37609;SDS011;23457;51.966;8.230;2023-12-29T09:55:07;13.38;;;2.25;;
37609;SDS011;23457;51.966;8.230;2023-12-29T09:57:38;12.27;;;2.42;;
37609;SDS011;23457;51.966;8.230;2023-12-29T10:00:07;9.50;;;1.95;;
37609;SDS011;23457;51.966;8.230;2023-12-29T10:02:40;8.90;;;2.00;;
37609;SDS011;23457;51.966;8.230;2023-12-29T10:05:07;9.15;;;2.42;;
37609;SDS011;23457;51.966;8.230;2023-12-29T10:07:39;7.32;;;1.77;;
37609;SDS011;23457;51.966;8.230;2023-12-29T10:10:09;7.15;;;1.40;;
37609;SDS011;23457;51.966;8.230;2023-12-29T10:12:43;5.78;;;1.70;;
37609;SDS011;23457;51.966;8.230;2023-12-29T10:26:11;6.55;;;1.15;;
37609;SDS011;23457;51.966;8.230;2023-12-29T10:28:38;5.35;;;1.10;;
37609;SDS011;23457;51.966;8.230;2023-12-29T10:31:04;6.82;;;1.30;;
37609;SDS011;23457;51.966;8.230;2023-12-29T10:33:31;5.53;;;0.90;;
37609;SDS011;23457;51.966;8.230;2023-12-29T10:36:00;5.13;;;0.93;;
37609;SDS011;23457;51.966;8.230;2023-12-29T10:38:34;3.63;;;0.88;;
37609;SDS011;23457;51.966;8.230;2023-12-29T10:41:14;3.78;;;0.73;;
37609;SDS011;23457;51.966;8.230;2023-12-29T10:43:43;2.72;;;0.90;;
37609;SDS011;23457;51.966;8.230;2023-12-29T10:46:13;5.03;;;0.90;;
37609;SDS011;23457;51.966;8.230;2023-12-29T10:48:40;5.22;;;0.85;;
37609;SDS011;23457;51.966;8.230;2023-12-29T10:51:07;7.93;;;1.67;;
37609;SDS011;23457;51.966;8.230;2023-12-29T10:53:34;2.20;;;0.82;;
37609;SDS011;23457;51.966;8.230;2023-12-29T10:56:16;7.78;;;0.90;;
37609;SDS011;23457;51.966;8.230;2023-12-29T10:58:56;2.28;;;0.57;;
37609;SDS011;23457;51.966;8.230;2023-12-29T11:01:26;3.35;;;0.82;;
37609;SDS011;23457;51.966;8.230;2023-12-29T11:04:00;3.03;;;0.60;;
37609;SDS011;23457;51.966;8.230;2023-12-29T11:06:44;3.38;;;0.90;;
37609;SDS011;23457;51.966;8.230;2023-12-29T11:09:14;3.13;;;0.68;;
37609;SDS011;23457;51.966;8.230;2023-12-29T11:11:55;3.13;;;0.98;;
37609;SDS011;23457;51.966;8.230;2023-12-29T11:14:23;1.60;;;0.40;;
37609;SDS011;23457;51.966;8.230;2023-12-29T11:16:51;2.15;;;0.50;;
37609;SDS011;23457;51.966;8.230;2023-12-29T11:19:18;1.75;;;0.70;;
37609;SDS011;23457;51.966;8.230;2023-12-29T11:21:45;4.93;;;0.73;;
37609;SDS011;23457;51.966;8.230;2023-12-29T11:24:13;2.83;;;0.60;;
37609;SDS011;23457;51.966;8.230;2023-12-29T11:26:51;1.00;;;0.50;;
37609;SDS011;23457;51.966;8.230;2023-12-29T11:29:19;4.22;;;0.90;;
37609;SDS011;23457;51.966;8.230;2023-12-29T11:31:46;2.05;;;0.52;;
37609;SDS011;23457;51.966;8.230;2023-12-29T11:34:20;3.75;;;0.80;;
37609;SDS011;23457;51.966;8.230;2023-12-29T11:36:55;2.13;;;0.60;;
37609;SDS011;23457;51.966;8.230;2023-12-29T11:39:40;13.40;;;4.30;;
37609;SDS011;23457;51.966;8.230;2023-12-29T11:42:26;1.67;;;0.82;;
37609;SDS011;23457;51.966;8.230;2023-12-29T11:44:59;2.78;;;0.63;;
37609;SDS011;23457;51.966;8.230;2023-12-29T11:48:02;1.73;;;0.60;;
37609;SDS011;23457;51.966;8.230;2023-12-29T11:50:31;3.83;;;1.08;;
37609;SDS011;23457;51.966;8.230;2023-12-29T11:53:00;1.45;;;0.50;;
37609;SDS011;23457;51.966;8.230;2023-12-29T11:55:29;2.78;;;0.73;;
37609;SDS011;23457;51.966;8.230;2023-12-29T11:57:58;1.10;;;0.68;;
37609;SDS011;23457;51.966;8.230;2023-12-29T12:00:40;1.35;;;0.60;;
37609;SDS011;23457;51.966;8.230;2023-12-29T12:05:50;1.55;;;0.70;;
37609;SDS011;23457;51.966;8.230;2023-12-29T12:08:35;2.63;;;0.70;;
37609;SDS011;23457;51.966;8.230;2023-12-29T12:13:56;1.50;;;0.80;;
37609;SDS011;23457;51.966;8.230;2023-12-29T12:19:08;1.58;;;0.80;;
37609;SDS011;23457;51.966;8.230;2023-12-29T12:21:36;0.90;;;0.70;;
37609;SDS011;23457;51.966;8.230;2023-12-29T12:24:04;3.28;;;0.85;;
37609;SDS011;23457;51.966;8.230;2023-12-29T12:26:31;1.98;;;0.88;;
37609;SDS011;23457;51.966;8.230;2023-12-29T12:28:59;4.97;;;1.30;;
37609;SDS011;23457;51.966;8.230;2023-12-29T12:31:26;2.65;;;0.90;;
37609;SDS011;23457;51.966;8.230;2023-12-29T12:33:54;3.40;;;0.90;;
37609;SDS011;23457;51.966;8.230;2023-12-29T12:36:23;3.72;;;0.70;;
37609;SDS011;23457;51.966;8.230;2023-12-29T12:38:52;3.25;;;0.80;;
37609;SDS011;23457;51.966;8.230;2023-12-29T12:41:20;2.70;;;0.95;;
37609;SDS011;23457;51.966;8.230;2023-12-29T12:46:27;1.90;;;0.75;;
37609;SDS011;23457;51.966;8.230;2023-12-29T12:48:53;5.03;;;1.02;;
37609;SDS011;23457;51.966;8.230;2023-12-29T12:51:21;2.90;;;0.98;;
37609;SDS011;23457;51.966;8.230;2023-12-29T12:53:48;3.45;;;1.10;;
37609;SDS011;23457;51.966;8.230;2023-12-29T12:56:16;2.75;;;0.70;;
37609;SDS011;23457;51.966;8.230;2023-12-29T12:58:45;2.85;;;1.23;;
37609;SDS011;23457;51.966;8.230;2023-12-29T13:01:12;1.65;;;0.70;;
37609;SDS011;23457;51.966;8.230;2023-12-29T13:03:40;4.18;;;0.95;;
37609;SDS011;23457;51.966;8.230;2023-12-29T13:06:09;4.82;;;1.00;;
37609;SDS011;23457;51.966;8.230;2023-12-29T13:11:08;1.10;;;0.55;;
37609;SDS011;23457;51.966;8.230;2023-12-29T13:13:39;2.08;;;0.80;;
37609;SDS011;23457;51.966;8.230;2023-12-29T13:16:07;3.30;;;0.90;;
37609;SDS011;23457;51.966;8.230;2023-12-29T13:18:34;3.05;;;0.90;;
37609;SDS011;23457;51.966;8.230;2023-12-29T13:21:02;5.45;;;1.00;;
37609;SDS011;23457;51.966;8.230;2023-12-29T13:23:30;3.85;;;1.13;;
37609;SDS011;23457;51.966;8.230;2023-12-29T13:25:58;3.70;;;1.00;;
37609;SDS011;23457;51.966;8.230;2023-12-29T13:28:28;5.78;;;1.00;;
37609;SDS011;23457;51.966;8.230;2023-12-29T13:30:56;4.13;;;1.20;;
37609;SDS011;23457;51.966;8.230;2023-12-29T13:33:31;4.55;;;1.35;;
37609;SDS011;23457;51.966;8.230;2023-12-29T13:36:11;5.60;;;1.33;;
37609;SDS011;23457;51.966;8.230;2023-12-29T13:41:33;2.90;;;1.42;;
37609;SDS011;23457;51.966;8.230;2023-12-29T13:44:01;6.68;;;0.95;;
37609;SDS011;23457;51.966;8.230;2023-12-29T13:46:29;3.78;;;1.27;;
37609;SDS011;23457;51.966;8.230;2023-12-29T13:48:57;6.63;;;1.20;;
37609;SDS011;23457;51.966;8.230;2023-12-29T13:51:25;6.90;;;1.30;;
37609;SDS011;23457;51.966;8.230;2023-12-29T13:54:01;6.82;;;1.65;;
37609;SDS011;23457;51.966;8.230;2023-12-29T13:56:29;10.10;;;1.40;;
37609;SDS011;23457;51.966;8.230;2023-12-29T13:58:56;7.47;;;1.75;;
37609;SDS011;23457;51.966;8.230;2023-12-29T14:01:23;3.80;;;1.17;;
37609;SDS011;23457;51.966;8.230;2023-12-29T14:03:51;4.60;;;1.30;;
37609;SDS011;23457;51.966;8.230;2023-12-29T14:06:26;4.53;;;1.20;;
37609;SDS011;23457;51.966;8.230;2023-12-29T14:08:56;3.25;;;1.20;;
37609;SDS011;23457;51.966;8.230;2023-12-29T14:11:23;5.90;;;1.20;;
37609;SDS011;23457;51.966;8.230;2023-12-29T14:13:50;3.70;;;0.90;;
37609;SDS011;23457;51.966;8.230;2023-12-29T14:16:17;4.85;;;0.90;;
37609;SDS011;23457;51.966;8.230;2023-12-29T14:26:27;7.60;;;1.20;;
37609;SDS011;23457;51.966;8.230;2023-12-29T14:29:07;4.82;;;1.25;;
37609;SDS011;23457;51.966;8.230;2023-12-29T14:31:41;5.60;;;1.50;;
37609;SDS011;23457;51.966;8.230;2023-12-29T14:34:09;5.22;;;1.23;;
37609;SDS011;23457;51.966;8.230;2023-12-29T14:36:37;4.55;;;1.15;;
37609;SDS011;23457;51.966;8.230;2023-12-29T14:39:05;3.38;;;1.02;;
37609;SDS011;23457;51.966;8.230;2023-12-29T14:41:32;1.75;;;0.47;;
37609;SDS011;23457;51.966;8.230;2023-12-29T14:44:00;2.22;;;0.70;;
37609;SDS011;23457;51.966;8.230;2023-12-29T14:46:27;2.60;;;0.65;;
37609;SDS011;23457;51.966;8.230;2023-12-29T14:48:56;0.82;;;0.50;;
37609;SDS011;23457;51.966;8.230;2023-12-29T14:51:23;2.25;;;0.90;;
37609;SDS011;23457;51.966;8.230;2023-12-29T14:53:50;1.83;;;0.75;;
37609;SDS011;23457;51.966;8.230;2023-12-29T14:56:17;3.30;;;1.05;;
37609;SDS011;23457;51.966;8.230;2023-12-29T14:58:44;2.63;;;1.00;;
37609;SDS011;23457;51.966;8.230;2023-12-29T15:01:12;5.93;;;2.10;;
37609;SDS011;23457;51.966;8.230;2023-12-29T15:03:39;3.42;;;1.27;;
37609;SDS011;23457;51.966;8.230;2023-12-29T15:06:06;6.60;;;0.95;;
37609;SDS011;23457;51.966;8.230;2023-12-29T15:08:34;4.60;;;1.10;;
37609;SDS011;23457;51.966;8.230;2023-12-29T15:11:01;4.13;;;0.90;;
37609;SDS011;23457;51.966;8.230;2023-12-29T15:13:29;4.07;;;0.88;;
37609;SDS011;23457;51.966;8.230;2023-12-29T15:15:57;4.40;;;1.10;;
37609;SDS011;23457;51.966;8.230;2023-12-29T15:18:26;2.10;;;0.85;;
37609;SDS011;23457;51.966;8.230;2023-12-29T15:20:53;2.80;;;1.02;;
37609;SDS011;23457;51.966;8.230;2023-12-29T15:23:20;3.90;;;1.05;;
37609;SDS011;23457;51.966;8.230;2023-12-29T15:25:47;1.80;;;0.85;;
37609;SDS011;23457;51.966;8.230;2023-12-29T15:28:14;6.82;;;1.27;;